createdAt,value
2023-04-23T07:43:14.173Z,2.08
2023-04-23T07:45:40.673Z,1.52
2023-04-23T07:48:07.169Z,2.22
2023-04-23T07:50:33.560Z,2.10
2023-04-23T07:53:00.465Z,2.08
2023-04-23T07:55:26.804Z,1.92
2023-04-23T07:57:55.577Z,1.67
2023-04-23T08:00:24.880Z,1.58
2023-04-23T08:02:53.783Z,1.90
2023-04-23T08:05:20.512Z,2.10
2023-04-23T08:07:47.030Z,1.90
2023-04-23T08:10:13.358Z,2.00
2023-04-23T08:12:39.863Z,1.60
2023-04-23T08:15:06.880Z,2.00
2023-04-23T08:17:33.404Z,1.67
2023-04-23T08:19:59.902Z,1.50
2023-04-23T08:22:26.311Z,1.90
2023-04-23T08:24:54.918Z,1.92
2023-04-23T08:27:23.693Z,1.48
2023-04-23T08:29:50.216Z,1.30
2023-04-23T08:32:16.842Z,1.83
2023-04-23T08:34:43.265Z,2.10
2023-04-23T08:37:16.555Z,1.65
2023-04-23T08:39:49.923Z,2.20
2023-04-23T08:42:26.389Z,1.60
2023-04-23T08:44:54.305Z,1.58
2023-04-23T08:47:29.806Z,1.50
2023-04-23T08:49:59.020Z,1.15
2023-04-23T08:52:33.193Z,1.50
2023-04-23T08:55:01.430Z,1.80
2023-04-23T08:57:28.066Z,1.60
2023-04-23T08:59:55.494Z,1.80
2023-04-23T09:02:22.876Z,1.77
2023-04-23T09:04:51.445Z,1.40
2023-04-23T09:07:19.149Z,1.23
2023-04-23T09:09:50.598Z,1.30
2023-04-23T09:12:17.216Z,1.42
2023-04-23T09:14:44.377Z,1.63
2023-04-23T09:17:10.971Z,1.48
2023-04-23T09:19:40.026Z,1.15
2023-04-23T09:22:07.720Z,1.45
2023-04-23T09:24:34.428Z,1.23
2023-04-23T09:27:00.836Z,1.38
2023-04-23T09:29:27.421Z,1.20
2023-04-23T09:32:06.399Z,1.50
2023-04-23T09:34:35.489Z,1.20
2023-04-23T09:37:03.645Z,1.33
2023-04-23T09:39:30.294Z,1.00
2023-04-23T09:42:03.698Z,1.30
2023-04-23T09:44:35.644Z,1.58
2023-04-23T09:47:14.774Z,1.60
2023-04-23T09:49:50.543Z,1.13
2023-04-23T09:52:18.437Z,1.25
2023-04-23T09:54:46.490Z,1.27
2023-04-23T09:57:15.608Z,1.20
2023-04-23T09:59:48.916Z,1.02
2023-04-23T10:02:19.882Z,1.77
2023-04-23T10:04:53.417Z,1.50
2023-04-23T10:07:24.139Z,1.70
2023-04-23T10:09:50.616Z,1.00
2023-04-23T10:12:40.986Z,1.60
2023-04-23T10:15:07.950Z,1.50
2023-04-23T10:17:38.295Z,1.90
2023-04-23T10:20:07.108Z,2.60
2023-04-23T10:22:35.604Z,1.50
2023-04-23T10:25:08.767Z,0.88
2023-04-23T10:27:52.164Z,1.30
2023-04-23T10:30:21.176Z,0.88
2023-04-23T10:32:49.474Z,1.25
2023-04-23T10:35:16.254Z,5.15
2023-04-23T10:37:44.712Z,1.90
2023-04-23T10:40:14.658Z,1.42
2023-04-23T10:42:43.865Z,1.30
2023-04-23T10:47:51.005Z,0.90
2023-04-23T10:50:47.736Z,1.00
2023-04-23T10:53:25.557Z,1.00
2023-04-23T10:56:06.830Z,1.05
2023-04-23T10:58:50.468Z,1.50
2023-04-23T11:01:18.536Z,1.08
2023-04-23T11:03:45.507Z,1.00
2023-04-23T11:06:39.737Z,0.63
2023-04-23T11:09:46.628Z,0.90
2023-04-23T11:12:25.237Z,1.00
2023-04-23T11:14:54.703Z,0.75
2023-04-23T11:17:44.292Z,0.85
2023-04-23T11:20:13.827Z,1.20
2023-04-23T11:22:45.953Z,3.10
2023-04-23T11:25:13.681Z,1.35
2023-04-23T11:27:44.166Z,0.75
2023-04-23T11:30:24.335Z,0.65
2023-04-23T11:32:53.111Z,1.90
2023-04-23T11:35:22.108Z,1.20
2023-04-23T11:37:49.477Z,1.70
2023-04-23T11:40:19.566Z,0.90
2023-04-23T11:42:51.042Z,0.80
2023-04-23T11:45:28.014Z,0.60
2023-04-23T11:47:57.020Z,0.70
2023-04-23T11:50:24.739Z,0.98
2023-04-23T11:52:52.662Z,0.88
2023-04-23T11:55:22.491Z,0.82
2023-04-23T11:57:51.426Z,0.68
2023-04-23T12:00:20.573Z,0.68
2023-04-23T12:02:59.975Z,0.82
2023-04-23T12:05:33.806Z,0.80
2023-04-23T12:08:11.791Z,0.57
2023-04-23T12:10:52.991Z,0.80
2023-04-23T12:13:26.238Z,0.60
2023-04-23T12:15:58.023Z,0.40
2023-04-23T12:18:31.321Z,0.73
2023-04-23T12:21:05.658Z,0.77
2023-04-23T12:23:33.454Z,0.80
2023-04-23T12:25:59.884Z,0.80
2023-04-23T12:28:31.318Z,0.85
2023-04-23T12:31:02.335Z,0.70
2023-04-23T12:33:31.623Z,0.60
2023-04-23T12:36:00.846Z,0.50
2023-04-23T12:38:29.031Z,0.45
2023-04-23T12:41:00.104Z,0.70
2023-04-23T12:43:27.179Z,0.80
2023-04-23T12:45:56.431Z,0.70
2023-04-23T12:48:22.779Z,0.52
2023-04-23T12:50:51.868Z,0.63
2023-04-23T12:53:20.854Z,0.70
2023-04-23T12:55:48.362Z,0.65
2023-04-23T12:58:14.741Z,0.73
2023-04-23T13:00:41.165Z,0.57
2023-04-23T13:03:08.532Z,0.77
2023-04-23T13:05:35.229Z,0.60
2023-04-23T13:08:01.784Z,0.60
2023-04-23T13:10:30.771Z,0.65
2023-04-23T13:12:57.326Z,0.80
2023-04-23T13:15:27.154Z,0.60
2023-04-23T13:17:53.692Z,0.68
2023-04-23T13:20:20.241Z,0.57
2023-04-23T13:22:49.803Z,0.80
2023-04-23T13:25:16.157Z,0.50
2023-04-23T13:27:42.579Z,0.68
2023-04-23T13:30:11.806Z,0.60
2023-04-23T13:32:38.197Z,0.60
2023-04-23T13:35:05.194Z,0.90
2023-04-23T13:37:31.995Z,0.55
2023-04-23T13:40:01.485Z,0.70
2023-04-23T13:42:27.844Z,0.52
2023-04-23T13:44:54.205Z,0.63
2023-04-23T13:47:20.628Z,0.90
2023-04-23T13:49:47.014Z,0.80
2023-04-23T13:52:13.393Z,0.90
2023-04-23T13:54:40.140Z,0.63
2023-04-23T13:57:06.595Z,0.85
2023-04-23T13:59:33.014Z,0.65
2023-04-23T14:01:59.539Z,0.60
2023-04-23T14:04:27.031Z,0.50
2023-04-23T14:06:53.558Z,0.90
2023-04-23T14:09:22.068Z,0.77
2023-04-23T14:11:48.560Z,0.70
2023-04-23T14:14:15.415Z,0.70
2023-04-23T14:16:41.930Z,0.70
2023-04-23T14:19:10.907Z,0.80
2023-04-23T14:21:37.635Z,0.60
2023-04-23T14:24:22.098Z,0.52
2023-04-23T14:26:50.021Z,0.77
2023-04-23T14:29:22.492Z,0.60
2023-04-23T14:31:48.961Z,0.90
2023-04-23T14:34:21.141Z,0.90
2023-04-23T14:36:49.246Z,0.60
2023-04-23T14:39:15.865Z,0.63
2023-04-23T14:41:42.648Z,0.77
2023-04-23T14:44:09.040Z,0.75
2023-04-23T14:46:35.559Z,0.80
2023-04-23T14:49:02.209Z,0.90
2023-04-23T14:51:28.597Z,0.75
2023-04-23T14:53:56.654Z,0.57
2023-04-23T14:56:23.431Z,0.60
2023-04-23T14:58:49.882Z,0.90
2023-04-23T15:01:16.552Z,0.75
2023-04-23T15:03:46.951Z,0.70
2023-04-23T15:06:13.765Z,0.70
2023-04-23T15:08:40.546Z,0.70
2023-04-23T15:11:13.479Z,0.60
2023-04-23T15:13:50.543Z,0.60
2023-04-23T15:16:46.799Z,0.70
2023-04-23T15:19:17.774Z,0.88
2023-04-23T15:21:45.005Z,1.00
2023-04-23T15:24:11.472Z,0.47
2023-04-23T15:26:40.337Z,0.90
2023-04-23T15:29:09.063Z,0.75
2023-04-23T15:31:39.522Z,1.13
2023-04-23T15:34:08.705Z,0.93
2023-04-23T15:36:37.214Z,0.68
2023-04-23T15:39:03.921Z,1.02
2023-04-23T15:41:30.534Z,1.00
2023-04-23T15:43:56.992Z,1.38
2023-04-23T15:46:26.124Z,0.90
2023-04-23T15:48:52.559Z,1.00
2023-04-23T15:51:18.977Z,1.35
2023-04-23T15:53:45.405Z,1.42
2023-04-23T15:56:11.770Z,1.98
2023-04-23T15:58:39.587Z,0.70
2023-04-23T16:01:07.143Z,0.70
2023-04-23T16:03:34.311Z,1.00
2023-04-23T16:06:01.054Z,1.20
2023-04-23T16:08:27.395Z,1.13
2023-04-23T16:10:54.862Z,1.17
2023-04-23T16:13:23.948Z,1.15
2023-04-23T16:15:50.444Z,0.85
2023-04-23T16:18:16.910Z,0.80
2023-04-23T16:20:45.731Z,0.82
2023-04-23T16:23:14.469Z,0.80
2023-04-23T16:25:43.493Z,1.30
2023-04-23T16:28:10.131Z,1.58
2023-04-23T16:30:36.531Z,0.80
2023-04-23T16:33:03.035Z,2.20
2023-04-23T16:35:29.463Z,2.25
2023-04-23T16:37:56.058Z,1.23
2023-04-23T16:40:22.412Z,1.70
2023-04-23T16:42:51.614Z,1.90
2023-04-23T16:45:22.654Z,1.73
2023-04-23T16:47:50.235Z,1.25
2023-04-23T16:50:16.712Z,0.95
2023-04-23T16:52:43.098Z,0.63
2023-04-23T16:55:09.639Z,1.20
2023-04-23T16:57:36.880Z,1.15
2023-04-23T17:00:06.038Z,0.75
2023-04-23T17:02:32.676Z,0.80
2023-04-23T17:05:01.868Z,0.73
2023-04-23T17:07:28.599Z,0.98
2023-04-23T17:09:55.192Z,0.80
2023-04-23T17:12:24.368Z,0.75
2023-04-23T17:14:50.749Z,0.85
2023-04-23T17:17:17.088Z,1.10
2023-04-23T17:19:45.649Z,0.70
2023-04-23T17:22:16.887Z,0.88
2023-04-23T17:24:43.590Z,1.10
2023-04-23T17:27:12.649Z,0.88
2023-04-23T17:29:41.485Z,0.73
2023-04-23T17:32:10.653Z,0.88
2023-04-23T17:34:37.097Z,1.25
2023-04-23T17:37:03.613Z,1.10
2023-04-23T17:39:32.347Z,1.00
2023-04-23T17:41:58.862Z,1.17
2023-04-23T17:44:27.859Z,1.40
2023-04-23T17:46:55.070Z,1.48
2023-04-23T17:49:22.367Z,1.05
2023-04-23T17:51:48.900Z,1.27
2023-04-23T17:54:15.442Z,1.50
2023-04-23T17:56:41.839Z,1.10
2023-04-23T17:59:08.321Z,1.40
2023-04-23T18:01:34.910Z,1.30
2023-04-23T18:04:01.661Z,1.23
2023-04-23T18:06:28.860Z,1.30
2023-04-23T18:08:55.380Z,1.63
2023-04-23T18:11:22.013Z,1.38
2023-04-23T18:13:53.383Z,1.60
2023-04-23T18:16:19.817Z,1.40
2023-04-23T18:18:46.489Z,2.28
2023-04-23T18:21:14.738Z,1.48
2023-04-23T18:23:41.204Z,1.48
2023-04-23T18:26:07.749Z,1.55
2023-04-23T18:28:34.996Z,2.45
2023-04-23T18:31:02.695Z,1.80
2023-04-23T18:33:51.636Z,1.52
2023-04-23T18:36:27.158Z,0.90
2023-04-23T18:38:53.692Z,0.90
2023-04-23T18:41:22.411Z,1.00
2023-04-23T18:43:53.767Z,1.27
2023-04-23T18:46:20.620Z,0.90
2023-04-23T18:48:56.930Z,1.10
2023-04-23T18:51:36.764Z,0.88
2023-04-23T18:54:05.879Z,0.95
2023-04-23T18:56:32.430Z,0.70
2023-04-23T18:58:58.787Z,1.00
2023-04-23T19:01:27.629Z,1.00
2023-04-23T19:03:54.839Z,1.50
2023-04-23T19:06:21.882Z,1.27
2023-04-23T19:08:48.347Z,1.10
2023-04-23T19:11:14.938Z,1.30
2023-04-23T19:13:43.687Z,1.20
2023-04-23T19:16:10.363Z,1.27
2023-04-23T19:18:37.321Z,1.60
2023-04-23T19:21:09.457Z,1.48
2023-04-23T19:23:36.027Z,1.50
2023-04-23T19:26:03.830Z,1.25
2023-04-23T19:28:30.703Z,1.15
2023-04-23T19:31:02.487Z,0.93
2023-04-23T19:33:29.106Z,1.00
2023-04-23T19:35:58.339Z,1.10
2023-04-23T19:38:25.070Z,0.93
2023-04-23T19:40:51.790Z,1.25
2023-04-23T19:43:18.883Z,1.20
2023-04-23T19:45:47.913Z,1.60
2023-04-23T19:48:21.808Z,1.20
2023-04-23T19:50:48.742Z,0.82
2023-04-23T19:53:15.303Z,1.33
2023-04-23T19:55:41.926Z,1.35
2023-04-23T19:58:08.349Z,1.27
2023-04-23T20:00:40.342Z,1.35
2023-04-23T20:03:08.474Z,1.17
2023-04-23T20:05:35.187Z,1.20
2023-04-23T20:08:04.478Z,1.42
2023-04-23T20:10:31.627Z,0.82
2023-04-23T20:13:01.104Z,0.60
2023-04-23T20:15:28.255Z,0.60
2023-04-23T20:17:55.552Z,0.80
2023-04-23T20:20:22.380Z,0.85
2023-04-23T20:22:51.218Z,0.90
2023-04-23T20:25:17.921Z,0.63
2023-04-23T20:27:45.030Z,0.70
2023-04-23T20:30:14.218Z,0.82
2023-04-23T20:32:40.931Z,0.90
2023-04-23T20:35:07.867Z,0.68
2023-04-23T20:37:36.718Z,0.77
2023-04-23T20:40:03.772Z,0.70
2023-04-23T20:42:30.296Z,0.70
2023-04-23T20:44:59.026Z,0.90
2023-04-23T20:47:25.542Z,0.80
2023-04-23T20:49:56.630Z,0.80
2023-04-23T20:52:23.007Z,0.77
2023-04-23T20:54:49.367Z,1.10
2023-04-23T20:57:15.913Z,0.70
2023-04-23T20:59:42.682Z,0.90
2023-04-23T21:02:12.909Z,0.68
2023-04-23T21:04:39.501Z,0.85
2023-04-23T21:07:06.070Z,0.82
2023-04-23T21:09:32.610Z,0.80
2023-04-23T21:11:59.181Z,0.70
2023-04-23T21:14:25.818Z,0.60
2023-04-23T21:16:56.363Z,0.70
2023-04-23T21:19:22.925Z,0.68
2023-04-23T21:21:52.810Z,0.63
2023-04-23T21:24:19.296Z,0.63
2023-04-23T21:26:46.451Z,0.60
2023-04-23T21:29:12.990Z,0.52
2023-04-23T21:31:47.732Z,0.63
2023-04-23T21:34:17.508Z,0.60
2023-04-23T21:36:49.286Z,0.80
2023-04-23T21:39:16.286Z,0.68
2023-04-23T21:41:44.347Z,0.70
2023-04-23T21:44:11.254Z,0.70
2023-04-23T21:46:37.654Z,0.68
2023-04-23T21:49:04.302Z,0.88
2023-04-23T21:51:30.787Z,0.50
2023-04-23T21:53:57.302Z,0.68
2023-04-23T21:56:23.783Z,0.50
2023-04-23T21:58:50.256Z,0.50
2023-04-23T22:01:18.043Z,0.50
2023-04-23T22:03:47.959Z,0.95
2023-04-23T22:06:15.815Z,0.80
2023-04-23T22:08:44.546Z,0.57
2023-04-23T22:11:11.354Z,0.75
2023-04-23T22:13:40.392Z,0.63
2023-04-23T22:16:20.294Z,0.90
2023-04-23T22:18:54.569Z,1.13
2023-04-23T22:21:20.961Z,0.80
2023-04-23T22:23:47.376Z,0.77
2023-04-23T22:26:13.931Z,0.70
2023-04-23T22:28:40.339Z,1.20
2023-04-23T22:31:06.697Z,0.90
2023-04-23T22:33:33.417Z,1.20
2023-04-23T22:35:59.975Z,1.30
2023-04-23T22:38:26.724Z,0.93
2023-04-23T22:40:53.252Z,1.20
2023-04-23T22:43:19.710Z,1.00
2023-04-23T22:45:50.036Z,0.80
2023-04-23T22:48:16.550Z,0.90
2023-04-23T22:50:43.115Z,0.60
2023-04-23T22:53:09.505Z,0.70
2023-04-23T22:55:36.235Z,0.70
2023-04-23T22:58:02.644Z,0.80
2023-04-23T23:00:29.173Z,0.43
2023-04-23T23:02:55.925Z,0.60
2023-04-23T23:05:22.444Z,0.77
2023-04-23T23:07:48.798Z,0.50
2023-04-23T23:10:18.165Z,0.50
2023-04-23T23:12:44.716Z,0.40
2023-04-23T23:15:11.627Z,0.60
2023-04-23T23:17:38.277Z,0.43
2023-04-23T23:20:08.976Z,0.60
2023-04-23T23:22:36.299Z,0.30
2023-04-23T23:25:03.187Z,0.50
2023-04-23T23:27:29.779Z,0.60
2023-04-23T23:29:57.875Z,0.35
2023-04-23T23:32:26.751Z,0.60
2023-04-23T23:34:53.280Z,0.80
2023-04-23T23:37:19.754Z,0.43
2023-04-23T23:39:46.210Z,0.40
2023-04-23T23:42:17.174Z,0.70
2023-04-23T23:44:46.137Z,0.60
2023-04-23T23:47:13.007Z,0.50
2023-04-23T23:49:39.458Z,0.47
2023-04-23T23:52:05.868Z,0.50
2023-04-23T23:54:32.305Z,0.60
2023-04-23T23:56:59.828Z,0.68
2023-04-23T23:59:28.457Z,0.60
